createdAt,value
2023-04-29T00:00:18.683Z,97253.69
2023-04-29T00:02:47.160Z,97246.16
2023-04-29T00:05:18.862Z,97251.31
2023-04-29T00:07:48.658Z,97241.47
2023-04-29T00:10:17.090Z,97240.47
2023-04-29T00:12:45.436Z,97242.13
2023-04-29T00:15:20.969Z,97237.63
2023-04-29T00:17:49.314Z,97227.78
2023-04-29T00:20:18.157Z,97227.59
2023-04-29T00:22:46.449Z,97231.09
2023-04-29T00:25:19.101Z,97232.75
2023-04-29T00:27:47.417Z,97234.44
2023-04-29T00:30:15.781Z,97226.44
2023-04-29T00:32:44.739Z,97229.72
2023-04-29T00:35:13.586Z,97229.72
2023-04-29T00:37:41.899Z,97226.09
2023-04-29T00:40:15.396Z,97229.56
2023-04-29T00:42:45.243Z,97233.06
2023-04-29T00:45:13.761Z,97230.22
2023-04-29T00:47:42.201Z,97235.53
2023-04-29T00:50:11.505Z,97230.22
2023-04-29T00:52:40.265Z,97228.38
2023-04-29T00:55:10.033Z,97225.53
2023-04-29T00:57:39.123Z,97217.53
2023-04-29T01:00:11.140Z,97217.53
2023-04-29T01:02:39.715Z,97230.03
2023-04-29T01:05:08.845Z,97226.34
2023-04-29T01:07:46.803Z,97229.00
2023-04-29T01:10:21.257Z,97226.72
2023-04-29T01:13:00.611Z,97228.22
2023-04-29T01:15:41.547Z,97224.72
2023-04-29T01:18:15.781Z,97227.38
2023-04-29T01:20:45.348Z,97223.06
2023-04-29T01:23:13.663Z,97217.72
2023-04-29T01:25:43.937Z,97222.22
2023-04-29T01:28:23.260Z,97219.72
2023-04-29T01:30:58.756Z,97219.72
2023-04-29T01:33:45.274Z,97219.91
2023-04-29T01:36:26.649Z,97222.56
2023-04-29T01:39:09.786Z,97213.91
2023-04-29T01:41:45.908Z,97207.78
2023-04-29T01:44:20.790Z,97207.97
2023-04-29T01:46:53.999Z,97201.78
2023-04-29T01:49:22.921Z,97203.78
2023-04-29T01:51:53.837Z,97198.81
2023-04-29T01:54:22.882Z,97203.53
2023-04-29T01:56:52.999Z,97206.38
2023-04-29T01:59:22.208Z,97201.56
2023-04-29T02:01:51.360Z,97211.41
2023-04-29T02:04:19.704Z,97202.78
2023-04-29T02:06:51.074Z,97204.78
2023-04-29T02:09:19.460Z,97214.94
2023-04-29T02:11:47.789Z,97216.16
2023-04-29T02:14:17.493Z,97210.34
2023-04-29T02:16:46.513Z,97210.69
2023-04-29T02:19:15.289Z,97217.38
2023-04-29T02:21:43.531Z,97215.06
2023-04-29T02:24:11.906Z,97208.47
2023-04-29T02:26:40.297Z,97217.59
2023-04-29T02:29:08.578Z,97207.63
2023-04-29T02:31:38.263Z,97208.63
2023-04-29T02:34:06.634Z,97208.16
2023-04-29T02:36:35.028Z,97220.84
2023-04-29T02:39:03.388Z,97209.88
2023-04-29T02:41:33.501Z,97206.56
2023-04-29T02:44:01.844Z,97208.75
2023-04-29T02:46:30.125Z,97209.09
2023-04-29T02:48:59.841Z,97201.63
2023-04-29T02:51:28.122Z,97208.16
2023-04-29T02:53:56.744Z,97212.81
2023-04-29T02:56:25.119Z,97214.97
2023-04-29T02:58:53.490Z,97213.69
2023-04-29T03:01:21.936Z,97213.00
2023-04-29T03:03:50.559Z,97215.22
2023-04-29T03:06:20.453Z,97217.56
2023-04-29T03:08:48.710Z,97212.75
2023-04-29T03:11:17.069Z,97226.06
2023-04-29T03:13:48.371Z,97228.03
2023-04-29T03:16:18.919Z,97230.06
2023-04-29T03:18:47.258Z,97231.09
2023-04-29T03:21:22.032Z,97223.28
2023-04-29T03:23:50.402Z,97224.25
2023-04-29T03:26:18.873Z,97225.09
2023-04-29T03:28:47.823Z,97226.75
2023-04-29T03:31:16.717Z,97225.09
2023-04-29T03:33:45.121Z,97228.59
2023-04-29T03:36:13.450Z,97225.09
2023-04-29T03:38:43.371Z,97219.94
2023-04-29T03:41:11.793Z,97226.75
2023-04-29T03:43:40.161Z,97231.09
2023-04-29T03:46:08.693Z,97217.78
2023-04-29T03:48:40.077Z,97225.38
2023-04-29T03:51:11.245Z,97224.41
2023-04-29T03:53:39.941Z,97228.53
2023-04-29T03:56:09.804Z,97225.72
2023-04-29T03:58:38.194Z,97229.03
2023-04-29T04:01:06.915Z,97224.34
2023-04-29T04:03:35.905Z,97219.03
2023-04-29T04:06:04.485Z,97222.34
2023-04-29T04:08:32.824Z,97206.38
2023-04-29T04:11:03.284Z,97208.88
2023-04-29T04:13:33.163Z,97199.25
2023-04-29T04:16:04.143Z,97208.69
2023-04-29T04:18:32.544Z,97205.88
2023-04-29T04:21:07.716Z,97205.69
2023-04-29T04:23:36.345Z,97215.31
2023-04-29T04:26:04.604Z,97220.31
2023-04-29T04:28:34.535Z,97220.47
2023-04-29T04:31:02.954Z,97229.63
2023-04-29T04:33:31.325Z,97233.94
2023-04-29T04:35:59.687Z,97229.63
2023-04-29T04:38:28.170Z,97232.75
2023-04-29T04:40:56.451Z,97236.91
2023-04-29T04:43:27.013Z,97243.03
2023-04-29T04:45:57.387Z,97245.34
2023-04-29T04:48:25.846Z,97245.34
2023-04-29T04:50:54.219Z,97246.03
2023-04-29T04:53:25.496Z,97244.03
2023-04-29T04:55:56.788Z,97239.34
2023-04-29T04:58:26.667Z,97237.50
2023-04-29T05:00:56.400Z,97226.19
2023-04-29T05:03:24.959Z,97238.97
2023-04-29T05:05:58.987Z,97243.31
2023-04-29T05:08:27.962Z,97238.81
2023-04-29T05:10:59.627Z,97241.78
2023-04-29T05:13:28.336Z,97242.41
2023-04-29T05:15:58.051Z,97235.78
2023-04-29T05:18:26.370Z,97233.59
2023-04-29T05:20:54.718Z,97229.75
2023-04-29T05:23:23.252Z,97239.03
2023-04-29T05:25:51.585Z,97239.72
2023-04-29T05:28:19.927Z,97248.16
2023-04-29T05:30:48.526Z,97257.47
2023-04-29T05:33:18.342Z,97258.78
2023-04-29T05:35:46.624Z,97263.75
2023-04-29T05:38:14.971Z,97264.06
2023-04-29T05:40:43.261Z,97266.19
2023-04-29T05:43:11.614Z,97268.28
2023-04-29T05:45:39.986Z,97267.75
2023-04-29T05:48:13.978Z,97258.44
2023-04-29T05:50:44.310Z,97267.72
2023-04-29T05:53:12.732Z,97273.34
2023-04-29T05:55:44.703Z,97273.00
2023-04-29T05:58:13.364Z,97270.59
2023-04-29T06:00:43.796Z,97270.91
2023-04-29T06:03:12.626Z,97267.88
2023-04-29T06:05:43.449Z,97285.81
2023-04-29T06:08:13.475Z,97281.16
2023-04-29T06:10:44.872Z,97289.25
2023-04-29T06:13:13.248Z,97295.06
2023-04-29T06:15:44.439Z,97301.03
2023-04-29T06:18:12.793Z,97300.34
2023-04-29T06:20:49.963Z,97299.34
2023-04-29T06:23:19.666Z,97302.63
2023-04-29T06:25:48.881Z,97305.78
2023-04-29T06:28:18.160Z,97313.25
2023-04-29T06:30:47.012Z,97314.72
2023-04-29T06:33:15.550Z,97315.38
2023-04-29T06:35:43.828Z,97315.84
2023-04-29T06:38:12.156Z,97315.31
2023-04-29T06:40:41.826Z,97319.63
2023-04-29T06:43:10.137Z,97320.53
2023-04-29T06:45:38.536Z,97322.19
2023-04-29T06:48:07.550Z,97312.16
2023-04-29T06:50:39.388Z,97317.81
2023-04-29T06:53:12.807Z,97322.59
2023-04-29T06:55:42.573Z,97324.72
2023-04-29T06:58:10.877Z,97321.50
2023-04-29T07:00:44.028Z,97329.16
2023-04-29T07:03:12.506Z,97324.91
2023-04-29T07:05:42.239Z,97328.47
2023-04-29T07:08:11.201Z,97327.94
2023-04-29T07:10:46.513Z,97333.38
2023-04-29T07:13:17.147Z,97335.69
2023-04-29T07:15:45.531Z,97344.78
2023-04-29T07:18:13.833Z,97341.59
2023-04-29T07:20:42.179Z,97347.03
2023-04-29T07:23:10.707Z,97347.28
2023-04-29T07:25:39.191Z,97344.41
2023-04-29T07:28:09.437Z,97348.22
2023-04-29T07:30:40.738Z,97338.44
2023-04-29T07:33:09.551Z,97340.72
2023-04-29T07:35:37.902Z,97338.31
2023-04-29T07:38:08.727Z,97341.91
2023-04-29T07:40:39.368Z,97349.16
2023-04-29T07:43:09.423Z,97349.22
2023-04-29T07:45:37.748Z,97347.47
2023-04-29T07:48:09.673Z,97346.97
2023-04-29T07:50:38.371Z,97346.09
2023-04-29T07:53:07.535Z,97340.06
2023-04-29T07:55:36.048Z,97345.41
2023-04-29T07:58:04.444Z,97351.50
2023-04-29T08:00:34.188Z,97350.97
2023-04-29T08:03:02.642Z,97364.84
2023-04-29T08:05:31.991Z,97365.53
2023-04-29T08:08:00.619Z,97376.72
2023-04-29T08:10:29.228Z,97370.19
2023-04-29T08:12:57.862Z,97366.91
2023-04-29T08:15:30.988Z,97367.78
2023-04-29T08:18:03.323Z,97367.63
2023-04-29T08:20:31.727Z,97360.00
2023-04-29T08:23:00.790Z,97353.44
2023-04-29T08:25:31.092Z,97355.94
2023-04-29T08:27:59.457Z,97352.66
2023-04-29T08:30:28.474Z,97357.25
2023-04-29T08:32:56.823Z,97365.13
2023-04-29T08:35:26.733Z,97362.91
2023-04-29T08:37:55.307Z,97346.66
2023-04-29T08:40:24.133Z,97349.63
2023-04-29T08:42:52.924Z,97353.00
2023-04-29T08:45:24.432Z,97353.44
2023-04-29T08:47:53.901Z,97346.84
2023-04-29T08:50:22.459Z,97352.25
2023-04-29T08:52:53.085Z,97339.81
2023-04-29T08:55:21.900Z,97346.00
2023-04-29T08:57:51.954Z,97344.94
2023-04-29T09:00:21.093Z,97351.91
2023-04-29T09:02:52.860Z,97356.44
2023-04-29T09:05:22.372Z,97354.53
2023-04-29T09:07:54.274Z,97348.84
2023-04-29T09:10:22.978Z,97353.56
2023-04-29T09:12:51.567Z,97347.47
2023-04-29T09:15:27.316Z,97352.22
2023-04-29T09:17:58.725Z,97339.94
2023-04-29T09:20:31.586Z,97337.13
2023-04-29T09:23:04.148Z,97343.47
2023-04-29T09:25:32.668Z,97341.06
2023-04-29T09:28:17.841Z,97341.56
2023-04-29T09:30:50.726Z,97337.13
2023-04-29T09:33:19.176Z,97341.09
2023-04-29T09:35:50.597Z,97332.19
2023-04-29T09:38:21.119Z,97340.38
2023-04-29T09:43:26.307Z,97330.13
2023-04-29T09:45:54.993Z,97337.66
2023-04-29T09:48:23.521Z,97337.84
2023-04-29T09:51:03.260Z,97334.63
2023-04-29T09:53:37.959Z,97341.50
2023-04-29T09:56:07.372Z,97340.50
2023-04-29T09:58:39.028Z,97336.78
2023-04-29T10:01:08.561Z,97327.38
2023-04-29T10:03:39.389Z,97333.63
2023-04-29T10:06:09.186Z,97330.00
2023-04-29T10:08:41.505Z,97326.16
2023-04-29T10:11:12.228Z,97328.88
2023-04-29T10:13:44.797Z,97324.75
2023-04-29T10:16:26.664Z,97320.63
2023-04-29T10:18:57.567Z,97319.09
2023-04-29T10:21:31.256Z,97315.81
2023-04-29T10:24:03.433Z,97317.94
2023-04-29T10:26:33.019Z,97299.00
2023-04-29T10:29:02.455Z,97315.69
2023-04-29T10:31:31.295Z,97323.13
2023-04-29T10:34:01.670Z,97321.34
2023-04-29T10:36:31.675Z,97313.69
2023-04-29T10:39:06.030Z,97314.63
2023-04-29T10:41:41.036Z,97312.16
2023-04-29T10:44:09.438Z,97313.06
2023-04-29T10:46:38.365Z,97319.41
2023-04-29T10:49:08.242Z,97323.06
2023-04-29T10:51:42.065Z,97321.75
2023-04-29T10:54:15.183Z,97320.56
2023-04-29T10:56:46.506Z,97318.34
2023-04-29T10:59:16.571Z,97318.91
2023-04-29T11:01:51.120Z,97319.94
2023-04-29T11:04:22.730Z,97318.00
2023-04-29T11:06:55.473Z,97320.44
2023-04-29T11:09:29.375Z,97327.44
2023-04-29T11:12:05.425Z,97325.72
2023-04-29T11:14:38.038Z,97327.31
2023-04-29T11:17:11.065Z,97337.00
2023-04-29T11:19:45.130Z,97341.31
2023-04-29T11:22:27.131Z,97338.34
2023-04-29T11:25:00.515Z,97340.94
2023-04-29T11:27:33.303Z,97342.28
2023-04-29T11:30:05.082Z,97342.38
2023-04-29T11:32:35.422Z,97345.94
2023-04-29T11:35:19.809Z,97349.75
2023-04-29T11:37:48.839Z,97346.66
2023-04-29T11:40:18.714Z,97345.25
2023-04-29T11:42:49.182Z,97344.41
2023-04-29T11:45:24.907Z,97338.22
2023-04-29T11:47:54.876Z,97343.16
2023-04-29T11:50:24.016Z,97340.84
2023-04-29T11:52:52.539Z,97340.78
2023-04-29T11:55:22.512Z,97336.13
2023-04-29T11:57:52.510Z,97338.78
2023-04-29T12:00:23.896Z,97334.34
2023-04-29T12:02:52.428Z,97335.09
2023-04-29T12:05:21.513Z,97324.63
2023-04-29T12:07:52.296Z,97332.22
2023-04-29T12:10:22.680Z,97327.94
2023-04-29T12:12:51.472Z,97339.91
2023-04-29T12:15:23.424Z,97355.88
2023-04-29T12:17:52.085Z,97353.19
2023-04-29T12:20:20.806Z,97348.63
2023-04-29T12:22:49.340Z,97365.13
2023-04-29T12:25:29.536Z,97358.97
2023-04-29T12:28:01.334Z,97363.16
2023-04-29T12:30:29.790Z,97360.50
2023-04-29T12:32:58.176Z,97367.69
2023-04-29T12:35:27.038Z,97361.31
2023-04-29T12:37:55.517Z,97366.78
2023-04-29T12:40:24.851Z,97367.00
2023-04-29T12:42:55.208Z,97364.75
2023-04-29T12:45:32.133Z,97365.44
2023-04-29T12:48:01.843Z,97360.84
2023-04-29T12:50:34.359Z,97358.31
2023-04-29T12:53:05.159Z,97346.72
2023-04-29T12:55:35.514Z,97364.31
2023-04-29T12:58:09.371Z,97357.44
2023-04-29T13:00:38.531Z,97363.59
2023-04-29T13:03:07.333Z,97350.31
2023-04-29T13:05:44.744Z,97352.78
2023-04-29T13:08:13.070Z,97354.22
2023-04-29T13:10:41.675Z,97346.13
2023-04-29T13:13:11.503Z,97344.09
2023-04-29T13:15:42.901Z,97349.47
2023-04-29T13:18:11.555Z,97355.09
2023-04-29T13:20:42.067Z,97355.94
2023-04-29T13:23:12.088Z,97351.16
2023-04-29T13:25:42.183Z,97347.22
2023-04-29T13:28:12.278Z,97348.00
2023-04-29T13:33:12.221Z,97350.69
2023-04-29T13:35:42.040Z,97353.47
2023-04-29T13:38:10.761Z,97355.84
2023-04-29T13:40:45.250Z,97359.59
2023-04-29T13:43:26.354Z,97354.22
2023-04-29T13:46:04.332Z,97348.88
2023-04-29T14:02:08.081Z,97367.69
2023-04-29T14:04:07.410Z,97365.44
2023-04-29T14:06:36.385Z,97361.47
2023-04-29T14:09:04.876Z,97360.69
2023-04-29T14:11:36.725Z,97363.59
2023-04-29T14:14:07.209Z,97370.00
2023-04-29T14:16:35.530Z,97367.53
2023-04-29T14:19:04.259Z,97371.28
2023-04-29T14:21:33.390Z,97382.50
2023-04-29T14:24:03.357Z,97376.34
2023-04-29T14:26:32.050Z,97384.28
2023-04-29T14:29:01.230Z,97387.84
2023-04-29T14:31:32.616Z,97380.63
2023-04-29T14:34:01.257Z,97382.94
2023-04-29T14:36:29.621Z,97378.81
2023-04-29T14:38:57.946Z,97380.28
2023-04-29T14:41:26.449Z,97380.47
2023-04-29T14:43:54.953Z,97381.53
2023-04-29T14:46:23.530Z,97382.59
2023-04-29T14:48:53.240Z,97385.28
2023-04-29T14:51:21.619Z,97384.22
2023-04-29T14:53:49.967Z,97388.34
2023-04-29T14:56:18.538Z,97388.13
2023-04-29T14:58:46.939Z,97391.84
2023-04-29T15:01:15.371Z,97394.09
2023-04-29T15:03:45.048Z,97398.00
2023-04-29T15:06:15.390Z,97402.97
2023-04-29T15:08:43.794Z,97399.00
2023-04-29T15:11:12.379Z,97406.44
2023-04-29T15:13:40.848Z,97402.94
2023-04-29T15:16:10.068Z,97405.19
2023-04-29T15:18:38.532Z,97411.16
2023-04-29T15:21:07.781Z,97410.56
2023-04-29T15:23:37.588Z,97410.78
2023-04-29T15:26:07.173Z,97405.00
2023-04-29T15:28:35.728Z,97408.91
2023-04-29T15:31:05.603Z,97410.78
2023-04-29T15:33:34.458Z,97413.63
2023-04-29T15:36:03.124Z,97410.72
2023-04-29T15:38:31.724Z,97415.47
2023-04-29T15:41:02.921Z,97420.19
2023-04-29T15:43:32.773Z,97413.75
2023-04-29T15:46:01.403Z,97413.75
2023-04-29T15:48:29.829Z,97425.19
2023-04-29T15:50:58.155Z,97428.06
2023-04-29T15:53:26.608Z,97431.63
2023-04-29T15:55:55.741Z,97425.03
2023-04-29T15:58:25.573Z,97432.72
2023-04-29T16:00:54.073Z,97431.34
2023-04-29T16:03:22.652Z,97438.81
2023-04-29T16:05:51.490Z,97435.72
2023-04-29T16:08:19.909Z,97439.06
2023-04-29T16:10:49.635Z,97448.41
2023-04-29T16:13:18.412Z,97444.69
2023-04-29T16:15:48.176Z,97447.03
2023-04-29T16:18:17.612Z,97453.25
2023-04-29T16:20:46.143Z,97457.84
2023-04-29T16:23:14.591Z,97460.78
2023-04-29T16:25:43.071Z,97466.59
2023-04-29T16:28:11.521Z,97470.72
2023-04-29T16:30:39.889Z,97471.81
2023-04-29T16:33:09.694Z,97470.16
2023-04-29T16:35:38.261Z,97471.59
2023-04-29T16:38:06.826Z,97476.41
2023-04-29T16:40:35.417Z,97493.97
2023-04-29T16:43:03.834Z,97486.16
2023-04-29T16:45:32.297Z,97493.22
2023-04-29T16:48:02.930Z,97496.31
2023-04-29T16:50:36.017Z,97496.75
2023-04-29T16:53:04.886Z,97489.28
2023-04-29T16:55:33.598Z,97500.88
2023-04-29T16:58:01.950Z,97498.19
2023-04-29T17:00:30.332Z,97499.22
2023-04-29T17:02:59.029Z,97501.31
2023-04-29T17:05:28.086Z,97505.44
2023-04-29T17:07:57.827Z,97508.53
2023-04-29T17:10:26.356Z,97514.72
2023-04-29T17:12:54.744Z,97514.31
2023-04-29T17:15:23.250Z,97517.81
2023-04-29T17:17:51.815Z,97528.78
2023-04-29T17:20:21.706Z,97528.38
2023-04-29T17:22:50.094Z,97526.53
2023-04-29T17:25:23.554Z,97534.38
2023-04-29T17:27:51.977Z,97527.75
2023-04-29T17:30:20.432Z,97531.03
2023-04-29T17:32:49.968Z,97547.56
2023-04-29T17:35:18.567Z,97546.91
2023-04-29T17:37:47.912Z,97551.91
2023-04-29T17:40:16.383Z,97552.50
2023-04-29T17:42:46.168Z,97559.94
2023-04-29T17:45:17.859Z,97556.44
2023-04-29T17:47:46.897Z,97564.91
2023-04-29T17:50:15.631Z,97557.66
2023-04-29T17:52:44.414Z,97559.91
2023-04-29T17:55:14.246Z,97565.44
2023-04-29T17:57:42.749Z,97566.88
2023-04-29T18:00:14.445Z,97565.41
2023-04-29T18:02:42.960Z,97570.75
2023-04-29T18:05:14.312Z,97566.00
2023-04-29T18:07:42.770Z,97570.72
2023-04-29T18:10:11.624Z,97579.38
2023-04-29T18:12:40.636Z,97588.88
2023-04-29T18:15:16.660Z,97588.00
2023-04-29T18:17:45.443Z,97593.78
2023-04-29T18:20:14.879Z,97590.00
2023-04-29T18:22:43.851Z,97589.59
2023-04-29T18:25:15.070Z,97599.03
2023-04-29T18:27:43.582Z,97591.97
2023-04-29T18:30:14.626Z,97593.59
2023-04-29T18:32:43.165Z,97596.88
2023-04-29T18:35:11.983Z,97596.00
2023-04-29T18:37:40.505Z,97595.53
2023-04-29T18:40:10.749Z,97598.78
2023-04-29T18:42:39.310Z,97601.06
2023-04-29T18:45:12.289Z,97610.50
2023-04-29T18:47:42.198Z,97606.94
2023-04-29T18:50:10.943Z,97611.66
2023-04-29T18:52:39.428Z,97610.00
2023-04-29T18:55:08.904Z,97617.00
2023-04-29T18:57:37.623Z,97621.06
2023-04-29T19:00:07.364Z,97624.31
2023-04-29T19:02:37.340Z,97619.56
2023-04-29T19:05:12.820Z,97625.31
2023-04-29T19:07:41.375Z,97629.19
2023-04-29T19:10:10.749Z,97636.59
2023-04-29T19:12:39.517Z,97642.53
2023-04-29T19:15:15.403Z,97646.59
2023-04-29T19:17:44.125Z,97645.16
2023-04-29T19:20:14.721Z,97651.91
2023-04-29T19:22:43.197Z,97647.75
2023-04-29T19:25:12.127Z,97654.31
2023-04-29T19:27:45.073Z,97653.25
2023-04-29T19:30:14.487Z,97656.31
2023-04-29T19:32:43.245Z,97653.16
2023-04-29T19:35:16.926Z,97658.22
2023-04-29T19:37:45.612Z,97661.28
2023-04-29T19:40:14.338Z,97669.72
2023-04-29T19:42:42.885Z,97667.78
2023-04-29T19:45:12.975Z,97669.63
2023-04-29T19:47:41.591Z,97678.22
2023-04-29T19:50:11.056Z,97676.75
2023-04-29T19:52:41.228Z,97677.94
2023-04-29T19:55:14.515Z,97679.34
2023-04-29T19:57:43.007Z,97679.53
2023-04-29T20:00:14.644Z,97675.75
2023-04-29T20:02:43.410Z,97684.16
2023-04-29T20:05:13.704Z,97684.91
2023-04-29T20:07:43.743Z,97684.41
2023-04-29T20:10:13.085Z,97687.66
2023-04-29T20:12:41.792Z,97686.56
2023-04-29T20:15:11.621Z,97689.78
2023-04-29T20:17:40.519Z,97689.31
2023-04-29T20:20:15.511Z,97685.34
2023-04-29T20:22:45.616Z,97686.94
2023-04-29T20:25:14.395Z,97696.13
2023-04-29T20:27:43.012Z,97691.31
2023-04-29T20:30:12.146Z,97694.19
2023-04-29T20:32:40.860Z,97694.34
2023-04-29T20:35:09.563Z,97691.84
2023-04-29T20:37:38.320Z,97695.72
2023-04-29T20:40:13.168Z,97696.94
2023-04-29T20:42:41.898Z,97696.44
2023-04-29T20:45:11.763Z,97698.84
2023-04-29T20:47:40.234Z,97688.69
2023-04-29T20:50:15.127Z,97696.06
2023-04-29T20:52:43.596Z,97696.59
2023-04-29T20:55:16.547Z,97700.47
2023-04-29T20:57:44.961Z,97708.69
2023-04-29T21:00:14.377Z,97710.53
2023-04-29T21:02:42.739Z,97704.69
2023-04-29T21:05:16.318Z,97710.22
2023-04-29T21:07:44.692Z,97710.56
2023-04-29T21:10:15.397Z,97711.78
2023-04-29T21:12:43.709Z,97705.75
2023-04-29T21:15:15.408Z,97718.50
2023-04-29T21:17:43.713Z,97708.78
2023-04-29T21:20:13.304Z,97720.50
2023-04-29T21:22:41.698Z,97719.84
2023-04-29T21:25:12.778Z,97719.22
2023-04-29T21:27:42.567Z,97714.22
2023-04-29T21:30:17.046Z,97721.59
2023-04-29T21:32:45.386Z,97721.94
2023-04-29T21:35:13.874Z,97719.81
2023-04-29T21:37:42.185Z,97729.69
2023-04-29T21:40:14.554Z,97730.03
2023-04-29T21:42:45.442Z,97725.22
2023-04-29T21:45:16.132Z,97732.75
2023-04-29T21:47:45.000Z,97737.44
2023-04-29T21:50:13.598Z,97729.75
2023-04-29T21:52:42.086Z,97730.13
2023-04-29T21:55:11.452Z,97736.66
2023-04-29T21:57:44.124Z,97729.84
2023-04-29T22:00:30.786Z,97737.84
2023-04-29T22:03:01.891Z,97735.66
2023-04-29T22:05:30.605Z,97736.84
2023-04-29T22:08:00.652Z,97731.03
2023-04-29T22:10:29.162Z,97748.22
2023-04-29T22:12:57.836Z,97747.75
2023-04-29T22:15:29.205Z,97742.75
2023-04-29T22:17:58.401Z,97742.28
2023-04-29T22:20:27.486Z,97746.13
2023-04-29T22:22:56.069Z,97753.47
2023-04-29T22:25:24.539Z,97742.50
2023-04-29T22:27:52.955Z,97739.34
2023-04-29T22:30:24.717Z,97744.19
2023-04-29T22:32:55.077Z,97738.88
2023-04-29T22:35:23.494Z,97743.22
2023-04-29T22:37:51.910Z,97741.25
2023-04-29T22:40:23.133Z,97748.13
2023-04-29T22:42:51.488Z,97745.31
2023-04-29T22:45:19.821Z,97749.13
2023-04-29T22:47:48.151Z,97751.50
2023-04-29T22:50:18.141Z,97754.69
2023-04-29T22:52:46.505Z,97756.84
2023-04-29T22:55:14.815Z,97758.03
2023-04-29T22:57:43.148Z,97758.19
2023-04-29T23:00:15.868Z,97753.03
2023-04-29T23:02:44.314Z,97757.66
2023-04-29T23:05:12.687Z,97752.50
2023-04-29T23:07:42.413Z,97755.34
2023-04-29T23:10:17.520Z,97757.16
2023-04-29T23:12:45.957Z,97759.34
2023-04-29T23:15:14.335Z,97762.03
2023-04-29T23:17:42.671Z,97751.53
2023-04-29T23:20:13.127Z,97756.00
2023-04-29T23:22:42.850Z,97750.84
2023-04-29T23:25:16.974Z,97752.50
2023-04-29T23:27:45.338Z,97755.16
2023-04-29T23:30:13.882Z,97748.19
2023-04-29T23:32:42.182Z,97754.34
2023-04-29T23:35:13.198Z,97746.53
2023-04-29T23:37:42.959Z,97750.19
2023-04-29T23:40:12.313Z,97758.84
2023-04-29T23:42:40.610Z,97755.50
2023-04-29T23:45:13.320Z,97755.34
2023-04-29T23:47:41.609Z,97758.84
2023-04-29T23:50:10.956Z,97743.84
2023-04-29T23:52:39.380Z,97749.19
2023-04-29T23:55:15.375Z,97752.84
2023-04-29T23:57:43.643Z,97757.38
